createdAt,value
2018-06-02T00:01:26.498Z,56.37
2018-06-02T00:03:54.813Z,57.43
2018-06-02T00:06:23.885Z,58.93
2018-06-02T00:08:52.215Z,56.60
2018-06-02T00:11:20.592Z,60.13
2018-06-02T00:13:49.048Z,61.67
2018-06-02T00:16:17.363Z,58.97
2018-06-02T00:18:45.667Z,64.07
2018-06-02T00:21:14.011Z,63.73
2018-06-02T00:23:42.103Z,61.90
2018-06-02T00:26:10.402Z,64.27
2018-06-02T00:28:38.724Z,62.10
2018-06-02T00:31:07.065Z,50.10
2018-06-02T00:33:35.380Z,47.67
2018-06-02T00:36:03.690Z,49.63
2018-06-02T00:38:32.010Z,52.07
2018-06-02T00:41:00.315Z,46.27
2018-06-02T00:43:28.641Z,50.10
2018-06-02T00:45:56.960Z,50.20
2018-06-02T00:48:25.301Z,52.33
2018-06-02T00:50:53.635Z,48.37
2018-06-02T00:53:21.951Z,45.77
2018-06-02T00:55:50.299Z,47.47
2018-06-02T00:58:18.367Z,48.80
2018-06-02T01:00:46.677Z,47.43
2018-06-02T01:03:15.763Z,56.07
2018-06-02T01:05:44.065Z,62.93
2018-06-02T01:08:12.399Z,62.53
2018-06-02T01:10:41.291Z,58.10
2018-06-02T01:13:09.755Z,56.80
2018-06-02T01:15:38.054Z,60.33
2018-06-02T01:18:07.159Z,55.87
2018-06-02T01:20:35.486Z,56.53
2018-06-02T01:23:03.811Z,62.30
2018-06-02T01:25:33.323Z,65.43
2018-06-02T01:28:01.822Z,65.20
2018-06-02T01:30:30.148Z,68.37
2018-06-02T01:32:58.452Z,63.47
2018-06-02T01:35:26.782Z,66.07
2018-06-02T01:37:55.096Z,67.57
2018-06-02T01:40:23.412Z,67.10
2018-06-02T01:42:52.516Z,72.80
2018-06-02T01:45:21.592Z,64.97
2018-06-02T01:47:49.584Z,72.57
2018-06-02T01:50:17.886Z,67.10
2018-06-02T01:52:46.204Z,63.90
2018-06-02T01:55:14.523Z,61.60
2018-06-02T01:57:42.823Z,64.23
2018-06-02T02:00:11.909Z,64.03
2018-06-02T02:02:40.222Z,54.70
2018-06-02T02:05:08.228Z,61.47
2018-06-02T02:07:36.544Z,71.60
2018-06-02T02:10:04.325Z,78.37
2018-06-02T02:12:32.811Z,79.27
2018-06-02T02:15:01.881Z,69.50
2018-06-02T02:17:30.184Z,73.53
2018-06-02T02:19:59.292Z,76.07
2018-06-02T02:22:27.611Z,72.63
2018-06-02T02:24:55.950Z,73.90
2018-06-02T02:27:24.315Z,76.70
2018-06-02T02:29:52.644Z,79.57
2018-06-02T02:32:20.964Z,81.90
2018-06-02T02:34:49.287Z,78.07
2018-06-02T02:37:18.402Z,79.33
2018-06-02T02:39:46.722Z,80.13
2018-06-02T02:42:15.047Z,80.03
2018-06-02T02:44:44.135Z,84.30
2018-06-02T02:47:12.453Z,80.63
2018-06-02T02:49:40.771Z,80.30
2018-06-02T02:52:09.096Z,76.93
2018-06-02T02:54:38.179Z,73.77
2018-06-02T02:57:06.484Z,75.10
2018-06-02T02:59:35.551Z,73.80
2018-06-02T03:02:03.872Z,73.77
2018-06-02T03:04:32.197Z,75.23
2018-06-02T03:07:00.527Z,66.33
2018-06-02T03:09:29.610Z,70.57
2018-06-02T03:11:58.109Z,65.13
2018-06-02T03:14:27.183Z,78.97
2018-06-02T03:16:55.531Z,72.10
2018-06-02T03:19:23.848Z,69.27
2018-06-02T03:21:52.179Z,74.60
2018-06-02T03:24:20.477Z,71.50
2018-06-02T03:26:48.803Z,69.33
2018-06-02T03:29:17.123Z,69.53
2018-06-02T03:31:45.441Z,76.07
2018-06-02T03:34:13.767Z,63.47
2018-06-02T03:36:42.829Z,61.43
2018-06-02T03:39:11.342Z,61.83
2018-06-02T03:41:39.643Z,68.93
2018-06-02T03:44:07.959Z,66.57
2018-06-02T03:46:36.275Z,72.73
2018-06-02T03:49:04.023Z,64.63
2018-06-02T03:51:32.336Z,60.27
2018-06-02T03:54:00.675Z,59.83
2018-06-02T03:56:28.988Z,62.67
2018-06-02T03:58:56.958Z,59.17
2018-06-02T04:01:25.271Z,60.80
2018-06-02T04:03:54.337Z,65.33
2018-06-02T04:06:22.663Z,63.60
2018-06-02T04:08:50.982Z,61.13
2018-06-02T04:11:19.303Z,64.47
2018-06-02T04:13:47.661Z,68.50
2018-06-02T04:16:15.980Z,66.47
2018-06-02T04:18:44.279Z,68.37
2018-06-02T04:21:12.599Z,74.77
2018-06-02T04:23:40.913Z,79.43
2018-06-02T04:26:09.220Z,84.13
2018-06-02T04:28:37.535Z,85.90
2018-06-02T04:31:05.716Z,86.73
2018-06-02T04:33:34.022Z,92.13
2018-06-02T04:36:02.343Z,83.10
2018-06-02T04:38:31.430Z,81.87
2018-06-02T04:40:59.730Z,74.10
2018-06-02T04:43:28.847Z,72.27
2018-06-02T04:45:57.169Z,76.40
2018-06-02T04:48:25.487Z,75.87
2018-06-02T04:51:02.751Z,81.07
2018-06-02T04:53:31.067Z,66.73
2018-06-02T04:55:59.395Z,69.13
2018-06-02T04:58:27.718Z,68.57
2018-06-02T05:00:56.815Z,71.27
2018-06-02T05:03:25.893Z,69.30
2018-06-02T05:06:06.082Z,82.10
2018-06-02T05:08:34.387Z,81.40
2018-06-02T05:11:02.701Z,77.17
2018-06-02T05:13:31.026Z,67.80
2018-06-02T05:15:59.329Z,62.20
2018-06-02T05:18:27.665Z,58.13
2018-06-02T05:20:56.754Z,56.17
2018-06-02T05:23:25.080Z,63.00
2018-06-02T05:25:53.381Z,58.27
2018-06-02T05:28:21.678Z,54.00
2018-06-02T05:30:50.000Z,54.47
2018-06-02T05:33:19.068Z,59.27
2018-06-02T05:35:50.426Z,60.77
2018-06-02T05:38:18.754Z,57.13
2018-06-02T05:40:47.089Z,59.77
2018-06-02T05:43:15.398Z,62.77
2018-06-02T05:45:44.495Z,62.43
2018-06-02T05:48:12.804Z,53.57
2018-06-02T05:50:41.109Z,54.43
2018-06-02T05:53:09.434Z,58.00
2018-06-02T05:55:37.732Z,58.87
2018-06-02T05:58:06.807Z,58.63
2018-06-02T06:00:35.129Z,64.20
2018-06-02T06:03:03.446Z,56.67
2018-06-02T06:05:31.762Z,59.90
2018-06-02T06:08:00.836Z,61.70
2018-06-02T06:10:30.684Z,62.37
2018-06-02T06:12:58.993Z,60.07
2018-06-02T06:15:27.309Z,73.20
2018-06-02T06:17:55.617Z,58.70
2018-06-02T06:20:23.953Z,55.17
2018-06-02T06:22:52.288Z,57.20
2018-06-02T06:25:20.599Z,56.87
2018-06-02T06:27:48.913Z,62.83
2018-06-02T06:30:17.294Z,53.63
2018-06-02T06:32:45.634Z,53.70
2018-06-02T06:35:14.701Z,52.23
2018-06-02T06:37:42.793Z,51.87
2018-06-02T06:40:11.118Z,45.40
2018-06-02T06:42:39.423Z,49.97
2018-06-02T06:45:07.737Z,45.43
2018-06-02T06:47:36.055Z,42.37
2018-06-02T06:50:03.802Z,47.13
2018-06-02T06:52:32.131Z,45.90
2018-06-02T06:55:00.450Z,45.57
2018-06-02T06:57:28.795Z,43.37
2018-06-02T06:59:57.110Z,40.63
2018-06-02T07:02:25.469Z,34.67
2018-06-02T07:04:53.787Z,39.60
2018-06-02T07:07:22.183Z,37.73
2018-06-02T07:09:51.281Z,38.90
2018-06-02T07:12:19.593Z,40.10
2018-06-02T07:14:48.129Z,41.20
2018-06-02T07:17:16.456Z,40.10
2018-06-02T07:19:45.371Z,38.00
2018-06-02T07:22:13.674Z,37.33
2018-06-02T07:24:42.000Z,38.73
2018-06-02T07:27:10.308Z,37.67
2018-06-02T07:29:38.626Z,37.67
2018-06-02T07:32:06.942Z,37.73
2018-06-02T07:34:35.267Z,34.50
2018-06-02T07:37:04.321Z,33.57
2018-06-02T07:39:33.403Z,37.95
2018-06-02T07:42:01.723Z,33.43
2018-06-02T07:44:30.601Z,35.05
2018-06-02T07:46:59.516Z,33.30
2018-06-02T07:49:27.825Z,32.10
2018-06-02T07:51:56.140Z,34.00
2018-06-02T07:54:25.038Z,38.08
2018-06-02T07:56:53.960Z,30.48
2018-06-02T07:59:22.832Z,31.90
2018-06-02T08:01:51.711Z,32.63
2018-06-02T08:04:20.603Z,32.70
2018-06-02T08:06:49.483Z,31.87
2018-06-02T08:09:18.394Z,30.45
2018-06-02T08:11:47.256Z,28.45
2018-06-02T08:14:16.146Z,27.23
2018-06-02T08:16:45.014Z,28.92
2018-06-02T08:19:13.901Z,31.65
2018-06-02T08:21:42.766Z,31.75
2018-06-02T08:24:11.808Z,29.52
2018-06-02T08:26:40.727Z,30.42
2018-06-02T08:29:09.801Z,29.35
2018-06-02T08:31:38.675Z,25.80
2018-06-02T08:34:07.551Z,28.20
2018-06-02T08:36:36.437Z,26.67
2018-06-02T08:39:03.970Z,25.07
2018-06-02T08:41:33.644Z,23.33
2018-06-02T08:44:02.525Z,23.27
2018-06-02T08:46:31.440Z,22.70
2018-06-02T08:49:00.513Z,24.45
2018-06-02T08:51:29.397Z,23.75
2018-06-02T08:53:58.339Z,24.17
2018-06-02T08:56:27.201Z,26.25
2018-06-02T08:58:56.119Z,19.52
2018-06-02T09:01:25.016Z,22.62
2018-06-02T09:03:54.130Z,24.67
2018-06-02T09:06:23.063Z,23.80
2018-06-02T09:08:51.942Z,25.90
2018-06-02T09:11:20.810Z,27.48
2018-06-02T09:13:49.717Z,25.15
2018-06-02T09:16:20.212Z,26.92
2018-06-02T09:18:49.087Z,26.52
2018-06-02T09:21:17.989Z,37.38
2018-06-02T09:23:46.882Z,31.45
2018-06-02T09:26:15.770Z,30.88
2018-06-02T09:28:44.662Z,33.05
2018-06-02T09:31:12.992Z,32.87
2018-06-02T09:33:41.886Z,30.80
2018-06-02T09:36:10.753Z,33.80
2018-06-02T09:38:39.681Z,37.03
2018-06-02T09:41:08.555Z,37.08
2018-06-02T09:43:37.476Z,37.13
2018-06-02T09:46:06.374Z,37.33
2018-06-02T09:48:35.270Z,39.30
2018-06-02T09:51:04.150Z,42.70
2018-06-02T09:53:33.031Z,38.40
2018-06-02T09:56:01.954Z,38.08
2018-06-02T09:58:30.827Z,39.67
2018-06-02T10:00:59.702Z,38.88
2018-06-02T10:03:28.607Z,43.80
2018-06-02T10:05:57.506Z,44.92
2018-06-02T10:08:26.380Z,42.72
2018-06-02T10:10:55.264Z,51.40
2018-06-02T10:13:24.162Z,49.13
2018-06-02T10:15:53.090Z,46.03
2018-06-02T10:18:21.971Z,47.30
2018-06-02T10:20:50.866Z,54.10
2018-06-02T10:23:19.782Z,54.17
2018-06-02T10:25:48.674Z,58.20
2018-06-02T10:28:17.590Z,49.20
2018-06-02T10:30:46.486Z,51.20
2018-06-02T10:33:15.368Z,49.88
2018-06-02T10:35:44.326Z,43.40
2018-06-02T10:38:13.331Z,41.60
2018-06-02T10:40:42.217Z,42.78
2018-06-02T10:43:11.103Z,37.92
2018-06-02T10:45:39.994Z,37.30
2018-06-02T10:48:08.884Z,33.80
2018-06-02T10:50:37.775Z,37.67
2018-06-02T10:53:06.668Z,31.85
2018-06-02T10:55:35.220Z,34.58
2018-06-02T10:58:04.312Z,29.20
2018-06-02T11:00:33.199Z,30.40
2018-06-02T11:03:02.106Z,32.03
2018-06-02T11:05:30.997Z,29.48
2018-06-02T11:07:59.891Z,28.42
2018-06-02T11:10:28.759Z,28.85
2018-06-02T11:12:57.708Z,27.90
2018-06-02T11:15:26.625Z,28.50
2018-06-02T11:17:55.585Z,25.95
2018-06-02T11:20:24.477Z,28.30
2018-06-02T11:22:53.439Z,28.95
2018-06-02T11:25:22.315Z,29.15
2018-06-02T11:27:51.220Z,24.37
2018-06-02T11:30:20.093Z,24.30
2018-06-02T11:32:48.967Z,25.98
2018-06-02T11:35:17.872Z,24.25
2018-06-02T11:37:46.754Z,25.52
2018-06-02T11:40:15.655Z,25.02
2018-06-02T11:42:44.524Z,26.20
2018-06-02T11:45:13.460Z,21.52
2018-06-02T11:47:42.398Z,23.45
2018-06-02T11:50:11.298Z,22.05
2018-06-02T11:52:40.212Z,23.35
2018-06-02T11:55:09.106Z,21.00
2018-06-02T11:57:37.995Z,21.23
2018-06-02T12:00:06.918Z,22.52
2018-06-02T12:02:35.824Z,22.02
2018-06-02T12:05:04.451Z,26.05
2018-06-02T12:07:33.367Z,23.27
2018-06-02T12:10:01.907Z,22.13
2018-06-02T12:12:31.598Z,22.73
2018-06-02T12:15:00.486Z,25.62
2018-06-02T12:17:29.362Z,25.75
2018-06-02T12:19:58.253Z,25.35
2018-06-02T12:22:27.136Z,27.02
2018-06-02T12:24:56.038Z,24.17
2018-06-02T12:27:24.937Z,25.15
2018-06-02T12:29:53.848Z,25.55
2018-06-02T12:32:22.730Z,27.15
2018-06-02T12:34:51.613Z,28.25
2018-06-02T12:37:20.519Z,27.23
2018-06-02T12:39:49.615Z,26.00
2018-06-02T12:42:18.506Z,28.50
2018-06-02T12:44:47.410Z,30.85
2018-06-02T12:47:16.307Z,32.95
2018-06-02T12:49:45.172Z,30.85
2018-06-02T12:52:14.876Z,33.17
2018-06-02T12:54:43.745Z,34.63
2018-06-02T12:57:12.638Z,36.63
2018-06-02T12:59:41.511Z,40.33
2018-06-02T13:02:10.395Z,43.10
2018-06-02T13:04:39.299Z,44.25
2018-06-02T13:07:08.938Z,45.58
2018-06-02T13:09:37.830Z,48.47
2018-06-02T13:12:06.728Z,52.60
2018-06-02T13:14:35.615Z,49.13
2018-06-02T13:17:04.676Z,50.95
2018-06-02T13:19:36.722Z,55.69
2018-06-02T13:22:05.599Z,52.30
2018-06-02T13:24:34.488Z,53.55
2018-06-02T13:27:03.399Z,57.25
2018-06-02T13:29:31.735Z,57.17
2018-06-02T13:32:00.717Z,57.75
2018-06-02T13:34:29.642Z,65.80
2018-06-02T13:36:58.510Z,59.15
2018-06-02T13:39:27.432Z,53.33
2018-06-02T13:41:56.340Z,62.15
2018-06-02T13:44:25.288Z,58.38
2018-06-02T13:46:54.361Z,59.22
2018-06-02T13:49:23.237Z,61.05
2018-06-02T13:51:52.388Z,63.47
2018-06-02T13:54:21.258Z,75.82
2018-06-02T13:56:50.382Z,64.55
2018-06-02T13:59:19.284Z,57.58
2018-06-02T14:01:48.217Z,48.60
2018-06-02T14:04:17.122Z,49.17
2018-06-02T14:06:46.215Z,52.05
2018-06-02T14:09:15.119Z,50.28
2018-06-02T14:11:43.999Z,42.72
2018-06-02T14:14:12.918Z,53.22
2018-06-02T14:16:41.780Z,51.10
2018-06-02T14:19:10.116Z,55.15
2018-06-02T14:21:39.019Z,57.45
2018-06-02T14:24:07.923Z,54.40
2018-06-02T14:26:36.941Z,58.42
2018-06-02T14:29:05.523Z,57.78
2018-06-02T14:31:34.420Z,59.95
2018-06-02T14:34:03.315Z,61.15
2018-06-02T14:36:32.210Z,64.10
2018-06-02T14:39:01.093Z,65.05
2018-06-02T14:41:29.998Z,67.47
2018-06-02T14:43:58.874Z,69.70
2018-06-02T14:46:27.745Z,63.80
2018-06-02T14:48:56.627Z,65.40
2018-06-02T14:51:26.307Z,65.35
2018-06-02T14:53:55.217Z,72.32
2018-06-02T14:56:24.119Z,72.85
2018-06-02T14:58:53.027Z,68.25
2018-06-02T15:01:21.939Z,64.37
2018-06-02T15:03:50.816Z,66.65
2018-06-02T15:06:19.709Z,67.12
2018-06-02T15:08:49.352Z,69.22
2018-06-02T15:11:18.294Z,58.95
2018-06-02T15:13:47.317Z,61.97
2018-06-02T15:16:15.921Z,64.13
2018-06-02T15:18:44.813Z,68.87
2018-06-02T15:21:13.712Z,67.60
2018-06-02T15:23:42.602Z,65.85
2018-06-02T15:26:11.512Z,61.78
2018-06-02T15:28:40.390Z,63.05
2018-06-02T15:31:09.280Z,64.80
2018-06-02T15:33:38.174Z,74.47
2018-06-02T15:36:07.083Z,73.97
2018-06-02T15:38:36.193Z,75.15
2018-06-02T15:41:05.112Z,72.50
2018-06-02T15:43:34.013Z,70.70
2018-06-02T15:46:02.919Z,73.28
2018-06-02T15:48:31.804Z,69.18
2018-06-02T15:51:00.712Z,75.43
2018-06-02T15:53:29.612Z,74.32
2018-06-02T15:55:58.524Z,72.65
2018-06-02T15:58:28.197Z,69.82
2018-06-02T16:00:57.286Z,64.17
2018-06-02T16:03:26.202Z,62.08
2018-06-02T16:05:55.992Z,63.20
2018-06-02T16:08:24.364Z,64.07
2018-06-02T16:10:53.415Z,69.20
2018-06-02T16:13:22.298Z,64.32
2018-06-02T16:15:51.185Z,66.62
2018-06-02T16:18:19.511Z,70.70
2018-06-02T16:20:48.406Z,68.75
2018-06-02T16:23:17.282Z,71.12
2018-06-02T16:25:46.171Z,71.55
2018-06-02T16:28:15.101Z,68.37
2018-06-02T16:30:44.752Z,68.32
2018-06-02T16:33:13.649Z,74.28
2018-06-02T16:35:42.530Z,72.70
2018-06-02T16:38:11.469Z,71.68
2018-06-02T16:40:40.356Z,73.57
2018-06-02T16:43:09.229Z,68.87
2018-06-02T16:45:38.123Z,72.93
2018-06-02T16:48:07.006Z,74.15
2018-06-02T16:50:35.888Z,75.53
2018-06-02T16:53:04.797Z,80.28
2018-06-02T16:55:33.697Z,80.87
2018-06-02T16:58:03.513Z,81.85
2018-06-02T17:00:32.422Z,73.40
2018-06-02T17:03:01.317Z,66.80
2018-06-02T17:05:30.227Z,77.60
2018-06-02T17:07:59.117Z,71.40
2018-06-02T17:10:27.986Z,76.18
2018-06-02T17:12:56.697Z,76.95
2018-06-02T17:15:25.582Z,70.72
2018-06-02T17:17:54.496Z,73.93
2018-06-02T17:20:23.371Z,76.10
2018-06-02T17:22:52.278Z,68.03
2018-06-02T17:25:21.182Z,72.32
2018-06-02T17:27:50.077Z,70.78
2018-06-02T17:30:18.972Z,75.28
2018-06-02T17:32:48.068Z,72.83
2018-06-02T17:35:16.951Z,74.82
2018-06-02T17:37:46.633Z,77.80
2018-06-02T17:40:15.525Z,83.10
2018-06-02T17:42:44.411Z,79.85
2018-06-02T17:45:14.070Z,81.55
2018-06-02T17:47:42.954Z,78.53
2018-06-02T17:50:11.832Z,71.85
2018-06-02T17:52:40.726Z,71.12
2018-06-02T17:55:09.599Z,72.53
2018-06-02T17:57:39.252Z,70.40
2018-06-02T18:00:08.152Z,78.65
2018-06-02T18:02:37.057Z,74.28
2018-06-02T18:05:05.877Z,74.55
2018-06-02T18:07:35.546Z,76.00
2018-06-02T18:10:03.871Z,75.93
2018-06-02T18:12:32.771Z,79.62
2018-06-02T18:15:01.663Z,76.60
2018-06-02T18:17:30.597Z,74.30
2018-06-02T18:19:59.680Z,69.28
2018-06-02T18:22:28.001Z,77.45
2018-06-02T18:24:56.349Z,80.93
2018-06-02T18:27:24.718Z,83.63
2018-06-02T18:29:53.190Z,96.57
2018-06-02T18:32:21.510Z,96.57
2018-06-02T18:34:49.859Z,104.50
2018-06-02T18:37:18.196Z,108.47
2018-06-02T18:39:47.307Z,123.50
2018-06-02T18:42:15.629Z,124.43
2018-06-02T18:44:43.975Z,118.33
2018-06-02T18:47:13.061Z,113.27
2018-06-02T18:49:41.390Z,123.03
2018-06-02T18:52:09.762Z,116.77
2018-06-02T18:54:38.083Z,129.20
2018-06-02T18:57:06.422Z,133.57
2018-06-02T18:59:34.753Z,126.67
2018-06-02T19:02:03.089Z,137.53
2018-06-02T19:04:31.427Z,124.33
2018-06-02T19:06:59.741Z,122.93
2018-06-02T19:09:28.856Z,125.53
2018-06-02T19:11:57.171Z,124.53
2018-06-02T19:14:25.511Z,121.70
2018-06-02T19:16:53.828Z,128.23
2018-06-02T19:19:22.178Z,133.30
2018-06-02T19:21:50.496Z,125.83
2018-06-02T19:24:18.861Z,129.53
2018-06-02T19:26:47.227Z,120.10
2018-06-02T19:29:15.607Z,112.37
2018-06-02T19:31:44.084Z,121.30
2018-06-02T19:34:12.624Z,112.33
2018-06-02T19:36:40.958Z,117.07
2018-06-02T19:39:10.054Z,113.23
2018-06-02T19:41:38.401Z,106.33
2018-06-02T19:44:06.729Z,99.77
2018-06-02T19:46:35.052Z,102.37
2018-06-02T19:49:03.989Z,89.22
2018-06-02T19:51:32.460Z,107.70
2018-06-02T19:54:00.833Z,103.33
2018-06-02T19:56:29.139Z,93.10
2018-06-02T19:58:57.480Z,98.83
2018-06-02T20:01:25.798Z,93.47
2018-06-02T20:03:54.315Z,102.37
2018-06-02T20:06:22.650Z,96.37
2018-06-02T20:08:50.981Z,92.10
2018-06-02T20:11:19.316Z,95.97
2018-06-02T20:13:47.633Z,84.30
2018-06-02T20:16:16.734Z,84.47
2018-06-02T20:18:45.054Z,83.60
2018-06-02T20:21:13.460Z,73.60
2018-06-02T20:23:41.783Z,75.43
2018-06-02T20:26:10.143Z,70.73
2018-06-02T20:28:38.527Z,75.27
2018-06-02T20:31:06.872Z,66.43
2018-06-02T20:33:35.246Z,67.83
2018-06-02T20:36:03.922Z,66.63
2018-06-02T20:38:32.297Z,68.97
2018-06-02T20:41:00.605Z,73.33
2018-06-02T20:43:28.941Z,68.60
2018-06-02T20:45:58.045Z,79.30
2018-06-02T20:48:27.134Z,78.20
2018-06-02T20:50:55.452Z,72.80
2018-06-02T20:53:23.811Z,70.83
2018-06-02T20:55:52.900Z,70.63
2018-06-02T20:58:21.238Z,66.93
2018-06-02T21:00:49.663Z,62.07
2018-06-02T21:03:18.010Z,62.07
2018-06-02T21:05:46.319Z,63.10
2018-06-02T21:08:14.619Z,61.23
2018-06-02T21:10:42.943Z,67.53
2018-06-02T21:13:11.250Z,60.00
2018-06-02T21:15:39.597Z,67.97
2018-06-02T21:18:07.924Z,62.33
2018-06-02T21:20:36.249Z,60.30
2018-06-02T21:23:05.022Z,69.63
2018-06-02T21:25:34.122Z,56.13
2018-06-02T21:28:02.423Z,51.43
2018-06-02T21:30:30.769Z,52.83
2018-06-02T21:32:59.077Z,55.63
2018-06-02T21:35:27.962Z,53.25
2018-06-02T21:37:57.084Z,45.17
2018-06-02T21:40:25.383Z,45.93
2018-06-02T21:42:53.712Z,47.57
2018-06-02T21:45:22.036Z,44.83
2018-06-02T21:47:50.572Z,38.37
2018-06-02T21:50:18.881Z,38.07
2018-06-02T21:52:47.941Z,33.70
2018-06-02T21:55:16.258Z,34.33
2018-06-02T21:57:44.606Z,38.77
2018-06-02T22:00:13.496Z,28.29
2018-06-02T22:02:42.061Z,29.45
2018-06-02T22:05:10.375Z,27.70
2018-06-02T22:07:38.940Z,31.15
2018-06-02T22:10:07.844Z,28.67
2018-06-02T22:12:35.809Z,28.17
2018-06-02T22:15:03.561Z,28.93
2018-06-02T22:17:32.433Z,27.30
2018-06-02T22:20:01.512Z,26.53
2018-06-02T22:22:29.831Z,29.60
2018-06-02T22:24:58.725Z,32.08
2018-06-02T22:27:27.645Z,31.50
2018-06-02T22:29:55.978Z,30.50
2018-06-02T22:32:24.853Z,27.83
2018-06-02T22:34:53.167Z,32.13
2018-06-02T22:37:22.044Z,28.15
2018-06-02T22:39:50.939Z,29.98
2018-06-02T22:42:19.797Z,28.48
2018-06-02T22:44:48.109Z,28.83
2018-06-02T22:47:16.994Z,29.08
2018-06-02T22:49:45.306Z,27.67
2018-06-02T22:52:13.875Z,25.35
2018-06-02T22:54:42.621Z,25.83
2018-06-02T22:57:11.183Z,24.73
2018-06-02T22:59:39.716Z,25.65
2018-06-02T23:02:08.614Z,29.05
2018-06-02T23:04:37.705Z,28.83
2018-06-02T23:07:06.257Z,26.70
2018-06-02T23:09:35.124Z,28.20
2018-06-02T23:12:03.778Z,29.70
2018-06-02T23:14:32.672Z,28.30
2018-06-02T23:17:01.567Z,29.45
2018-06-02T23:19:30.450Z,33.50
2018-06-02T23:21:59.368Z,34.35
2018-06-02T23:24:28.252Z,36.22
2018-06-02T23:26:57.126Z,37.67
2018-06-02T23:29:26.015Z,40.20
2018-06-02T23:31:54.353Z,44.43
2018-06-02T23:34:22.684Z,45.07
2018-06-02T23:36:51.217Z,51.10
2018-06-02T23:39:19.520Z,51.13
2018-06-02T23:41:48.404Z,55.53
2018-06-02T23:44:16.731Z,56.33
2018-06-02T23:46:45.621Z,57.53
2018-06-02T23:49:15.303Z,65.95
2018-06-02T23:51:44.176Z,65.93
2018-06-02T23:54:12.537Z,67.23
2018-06-02T23:56:41.028Z,66.47
2018-06-02T23:59:09.906Z,71.28
